Time;durP1;ratioP1;P1;durP2;ratioP2;P2;SDS_P1;SDS_P2;PMS_P1;PMS_P2;Temp;Humidity;BMP_temperature;BMP_pressure;BME280_temperature;BME280_humidity;BME280_pressure;Samples;Min_cycle;Max_cycle;Signal;HPM_P1;HPM_P2
2023/11/27 00:04:17;;;;;;;6.82;3.60;;;;;;;5.95;82.36;99769.97;10236823;28;20641;-66
2023/11/27 00:09:19;;;;;;;7.10;4.20;;;;;;;6.01;82.83;99774.88;10225395;28;20059;-65
2023/11/27 00:14:21;;;;;;;6.85;4.07;;;;;;;5.95;83.09;99769.97;10210376;28;20129;-64
2023/11/27 00:19:23;;;;;;;11.43;3.92;;;;;;;5.98;83.80;99769.78;10235626;28;20050;-63
2023/11/27 00:24:25;;;;;;;7.00;3.60;;;;;;;6.10;83.53;99756.69;10256894;28;20125;-62
2023/11/27 00:29:28;;;;;;;8.80;4.38;;;;;;;5.99;83.67;99739.78;10231502;28;20130;-63
2023/11/27 00:34:32;;;;;;;8.30;3.83;;;;;;;6.04;82.73;99741.28;10211984;28;20051;-64
2023/11/27 00:39:35;;;;;;;8.48;3.83;;;;;;;5.74;82.81;99681.66;10235551;28;20062;-62
2023/11/27 00:44:37;;;;;;;8.30;4.15;;;;;;;6.00;82.40;99724.78;10257006;28;20606;-63
2023/11/27 00:49:44;;;;;;;8.98;3.80;;;;;;;6.01;81.91;99721.19;10243010;28;20054;-63
2023/11/27 00:54:47;;;;;;;7.43;3.17;;;;;;;5.99;82.54;99713.38;10236833;28;20130;-64
2023/11/27 00:59:51;;;;;;;7.82;3.92;;;;;;;6.01;81.94;99707.97;10256383;28;20271;-64
2023/11/27 01:04:53;;;;;;;6.78;3.25;;;;;;;6.02;82.00;99701.75;10225781;28;20051;-64
2023/11/27 01:09:57;;;;;;;8.40;3.42;;;;;;;5.99;81.82;99710.72;10240753;28;20051;-64
2023/11/27 01:14:58;;;;;;;7.07;3.03;;;;;;;5.90;81.42;99695.50;10221047;28;20739;-64
2023/11/27 01:20:00;;;;;;;8.07;3.80;;;;;;;6.01;80.95;99705.34;10226689;28;20101;-63
2023/11/27 01:25:04;;;;;;;6.72;3.22;;;;;;;5.93;80.95;99697.91;10247817;28;20078;-63
2023/11/27 01:30:07;;;;;;;5.40;2.75;;;;;;;5.96;81.60;99697.72;10209109;28;20050;-64
2023/11/27 01:35:09;;;;;;;6.40;3.28;;;;;;;5.97;80.68;99682.72;10243475;28;20062;-62
2023/11/27 01:40:12;;;;;;;5.22;2.70;;;;;;;5.93;81.10;99679.44;10223347;28;20743;-64
2023/11/27 01:45:14;;;;;;;7.90;3.28;;;;;;;5.84;80.60;99677.44;10187809;28;20042;-64
2023/11/27 01:50:15;;;;;;;6.45;2.80;;;;;;;5.81;80.63;99661.78;10230175;28;20058;-64
2023/11/27 01:55:17;;;;;;;6.40;3.60;;;;;;;5.81;80.55;99654.72;10216930;28;20629;-64
2023/11/27 02:00:20;;;;;;;6.28;3.33;;;;;;;5.83;80.37;99654.59;10230297;28;20141;-65
2023/11/27 02:05:21;;;;;;;5.78;2.75;;;;;;;5.78;80.31;99649.66;10250268;28;20050;-66
2023/11/27 02:10:23;;;;;;;5.60;2.30;;;;;;;5.64;80.46;99633.91;10234840;28;20876;-63
2023/11/27 02:15:25;;;;;;;5.68;3.10;;;;;;;5.52;81.04;99596.00;10217804;28;20339;-63
2023/11/27 02:20:26;;;;;;;7.30;2.90;;;;;;;5.72;80.11;99618.41;10211264;28;20155;-64
2023/11/27 02:25:31;;;;;;;6.95;2.25;;;;;;;5.57;79.97;99615.03;10225366;28;20142;-64
2023/11/27 02:30:33;;;;;;;4.88;2.47;;;;;;;5.68;79.95;99605.53;10247008;28;20055;-63
2023/11/27 02:35:35;;;;;;;4.63;2.97;;;;;;;5.65;80.21;99594.19;10232647;28;20649;-64
2023/11/27 02:40:36;;;;;;;5.30;3.10;;;;;;;5.60;79.67;99585.78;10249042;28;20157;-64
2023/11/27 02:45:38;;;;;;;6.32;2.78;;;;;;;5.59;79.57;99586.72;10245579;28;20054;-63
2023/11/27 02:50:39;;;;;;;4.95;2.30;;;;;;;5.61;79.42;99587.44;10248156;28;20560;-63
2023/11/27 02:55:41;;;;;;;3.70;2.38;;;;;;;5.53;79.61;99558.09;10230701;28;20074;-63
2023/11/27 03:00:42;;;;;;;5.15;2.47;;;;;;;5.63;79.03;99569.72;10230288;28;20058;-64
2023/11/27 03:05:44;;;;;;;7.03;3.00;;;;;;;5.60;78.89;99562.00;10247448;28;20059;-64
2023/11/27 03:10:46;;;;;;;6.82;2.97;;;;;;;5.54;79.63;99554.53;10228798;28;20055;-64
2023/11/27 03:15:48;;;;;;;5.75;2.47;;;;;;;5.42;79.32;99523.69;10248476;28;20105;-63
2023/11/27 03:20:49;;;;;;;3.80;2.15;;;;;;;5.43;78.92;99525.38;10243219;28;20109;-65
2023/11/27 03:25:51;;;;;;;4.00;2.30;;;;;;;5.54;79.63;99536.03;10249109;28;20054;-63
2023/11/27 03:30:54;;;;;;;4.63;2.53;;;;;;;5.52;78.96;99514.16;10246838;28;20134;-64
2023/11/27 03:35:55;;;;;;;5.28;2.25;;;;;;;5.51;78.77;99501.94;10234860;28;20297;-65
2023/11/27 03:40:57;;;;;;;7.70;2.42;;;;;;;5.60;78.78;99501.28;10225301;28;20058;-63
2023/11/27 03:46:02;;;;;;;9.63;2.35;;;;;;;5.58;78.62;99494.41;10246715;28;20573;-65
2023/11/27 03:51:05;;;;;;;5.13;2.33;;;;;;;5.58;78.33;99494.41;10250133;28;20059;-64
2023/11/27 03:56:08;;;;;;;5.55;2.55;;;;;;;5.63;78.71;99485.22;10193702;28;20146;-63
2023/11/27 04:01:13;;;;;;;5.70;2.63;;;;;;;5.59;78.77;99490.84;10223480;28;20075;-64
2023/11/27 04:06:22;;;;;;;4.18;2.40;;;;;;;5.50;79.46;99484.41;10226271;28;20710;-63
2023/11/27 04:11:27;;;;;;;6.22;2.90;;;;;;;5.48;80.10;99478.41;10251811;28;20047;-64
2023/11/27 04:16:29;;;;;;;5.20;2.60;;;;;;;5.44;80.54;99461.09;10250039;28;20042;-63
2023/11/27 04:21:31;;;;;;;7.75;3.65;;;;;;;5.42;81.48;99462.97;10253191;28;20142;-63
2023/11/27 04:26:34;;;;;;;4.57;2.88;;;;;;;5.25;81.48;99443.91;10226706;28;20050;-64
2023/11/27 04:31:35;;;;;;;4.13;3.28;;;;;;;5.31;82.54;99445.28;10252271;28;20054;-64
2023/11/27 04:36:37;;;;;;;6.53;3.10;;;;;;;5.29;82.65;99440.13;10250549;28;20051;-64
2023/11/27 04:41:40;;;;;;;5.95;3.28;;;;;;;5.39;82.53;99447.38;10225300;28;20499;-63
2023/11/27 04:46:41;;;;;;;5.65;3.20;;;;;;;5.31;82.50;99438.22;10262057;28;20105;-64
2023/11/27 04:51:44;;;;;;;7.47;3.25;;;;;;;5.16;83.46;99428.75;10237862;28;20061;-64
2023/11/27 04:56:46;;;;;;;5.55;3.05;;;;;;;5.20;83.39;99419.66;10249410;28;20062;-66
2023/11/27 05:01:47;;;;;;;5.43;3.40;;;;;;;5.22;82.92;99411.63;10243532;28;20065;-63
2023/11/27 05:06:49;;;;;;;7.93;3.70;;;;;;;5.18;83.03;99412.81;10226250;28;20056;-64
2023/11/27 05:11:52;;;;;;;5.55;3.40;;;;;;;5.10;82.87;99389.63;10225818;28;20144;-63
2023/11/27 05:16:53;;;;;;;5.47;3.00;;;;;;;5.17;83.23;99404.06;10227200;28;20693;-64
2023/11/27 05:21:56;;;;;;;4.95;2.78;;;;;;;5.17;82.91;99388.22;10249190;28;20129;-65
2023/11/27 05:26:59;;;;;;;7.93;4.45;;;;;;;5.08;82.73;99379.16;10221301;28;20051;-63
2023/11/27 05:32:08;;;;;;;5.07;3.22;;;;;;;5.10;82.43;99371.16;10215242;28;20050;-63
2023/11/27 05:37:09;;;;;;;6.95;3.50;;;;;;;5.11;82.84;99367.56;10239501;28;20433;-64
2023/11/27 05:42:11;;;;;;;6.82;3.28;;;;;;;5.17;82.91;99359.22;10249172;28;20589;-64
2023/11/27 05:47:13;;;;;;;5.93;4.43;;;;;;;5.15;81.80;99355.84;10221305;28;20156;-65
2023/11/27 05:52:15;;;;;;;7.25;4.05;;;;;;;4.93;82.61;99344.19;10241319;28;20050;-67
2023/11/27 05:57:17;;;;;;;7.07;4.20;;;;;;;4.87;82.60;99349.06;10258265;28;20061;-64
2023/11/27 06:02:18;;;;;;;6.05;4.05;;;;;;;4.98;83.00;99348.28;10224790;28;20066;-63
2023/11/27 06:07:20;;;;;;;6.88;3.85;;;;;;;4.81;82.55;99329.25;10211994;28;20047;-65
2023/11/27 06:12:23;;;;;;;7.28;3.78;;;;;;;4.85;82.35;99335.13;10232552;28;20055;-65
2023/11/27 06:17:25;;;;;;;7.05;4.55;;;;;;;4.92;83.21;99331.97;10238558;28;20059;-64
2023/11/27 06:22:27;;;;;;;8.18;3.72;;;;;;;4.87;82.46;99312.97;10239430;28;20141;-66
2023/11/27 06:27:29;;;;;;;7.15;3.63;;;;;;;4.87;82.03;99312.97;10234807;28;20285;-66
2023/11/27 06:32:30;;;;;;;8.95;4.57;;;;;;;4.84;82.16;99299.19;10249224;28;20057;-64
2023/11/27 06:37:32;;;;;;;5.75;4.35;;;;;;;4.94;81.93;99298.41;10239065;28;20190;-65
2023/11/27 06:42:34;;;;;;;6.05;4.18;;;;;;;4.86;82.16;99282.28;10242542;28;20046;-65
2023/11/27 06:47:35;;;;;;;4.45;3.78;;;;;;;4.99;82.42;99284.88;10228155;28;20058;-64
2023/11/27 06:52:39;;;;;;;8.75;4.47;;;;;;;5.06;82.19;99279.97;10244407;28;20057;-65
2023/11/27 06:57:41;;;;;;;5.45;4.00;;;;;;;4.97;81.88;99273.63;10232203;28;20126;-64
2023/11/27 07:02:43;;;;;;;7.13;4.60;;;;;;;5.00;81.97;99259.34;10228401;28;20579;-64
2023/11/27 07:07:44;;;;;;;6.80;3.83;;;;;;;4.97;81.92;99252.50;10242268;28;20047;-66
2023/11/27 07:12:46;;;;;;;7.45;4.22;;;;;;;4.89;82.31;99239.84;10237950;28;20050;-62
2023/11/27 07:17:47;;;;;;;8.38;3.70;;;;;;;5.03;82.22;99248.56;10239306;28;20137;-63
2023/11/27 07:22:49;;;;;;;8.38;4.13;;;;;;;4.94;81.63;99243.03;10244745;28;20138;-63
2023/11/27 07:27:50;;;;;;;9.20;4.57;;;;;;;4.94;82.76;99245.66;10247544;28;20059;-64
2023/11/27 07:32:53;;;;;;;7.00;4.05;;;;;;;4.91;83.01;99240.59;10160021;28;20062;-65
2023/11/27 07:37:54;;;;;;;7.22;4.70;;;;;;;4.55;84.03;99186.16;10227370;28;20142;-66
2023/11/27 07:42:57;;;;;;;7.40;4.18;;;;;;;4.74;83.91;99222.53;10221601;28;20086;-63
2023/11/27 07:47:59;;;;;;;7.32;4.55;;;;;;;4.78;84.77;99209.00;10235660;28;20050;-63
2023/11/27 07:53:01;;;;;;;10.20;9.20;;;;;;;4.59;85.17;99182.31;10246412;28;20074;-63
2023/11/27 07:58:02;;;;;;;5.75;4.47;;;;;;;4.90;85.06;99217.00;10220036;28;20260;-66
2023/11/27 08:03:04;;;;;;;7.32;4.80;;;;;;;4.90;84.88;99207.28;10250029;28;20054;-65
2023/11/27 08:08:08;;;;;;;9.13;5.50;;;;;;;4.80;85.04;99195.72;10244318;28;20998;-68
2023/11/27 08:13:11;;;;;;;8.07;4.78;;;;;;;4.89;84.79;99189.75;10232020;28;20529;-63
2023/11/27 08:18:13;;;;;;;8.20;4.43;;;;;;;4.87;84.61;99183.75;10233306;28;20047;-62
2023/11/27 08:23:14;;;;;;;7.18;4.53;;;;;;;4.95;85.00;99183.19;10225305;28;20069;-62
2023/11/27 08:28:16;;;;;;;7.32;4.85;;;;;;;4.81;85.02;99178.13;10241624;28;20051;-64
2023/11/27 08:33:20;;;;;;;7.25;4.32;;;;;;;4.82;85.44;99174.50;10230011;28;20609;-64
2023/11/27 08:38:21;;;;;;;6.63;4.20;;;;;;;4.70;85.28;99163.06;10237490;28;20059;-64
2023/11/27 08:43:23;;;;;;;7.10;4.80;;;;;;;4.63;85.06;99156.59;10227570;28;20689;-63
2023/11/27 08:48:26;;;;;;;5.90;3.72;;;;;;;4.76;86.70;99134.47;10255859;28;20599;-63
2023/11/27 08:53:30;;;;;;;7.80;4.22;;;;;;;4.71;87.16;99138.41;10239748;28;20105;-66
2023/11/27 08:58:34;;;;;;;9.05;4.18;;;;;;;4.59;88.16;99138.34;10226117;28;20077;-63
2023/11/27 09:03:35;;;;;;;7.35;3.88;;;;;;;4.55;88.53;99117.63;10232419;28;20098;-64
2023/11/27 09:08:40;;;;;;;8.48;4.80;;;;;;;4.58;89.66;99114.75;10247291;28;20052;-63
2023/11/27 09:13:42;;;;;;;7.15;4.55;;;;;;;4.53;90.11;99114.22;10250546;28;20129;-63
2023/11/27 09:18:44;;;;;;;8.40;4.78;;;;;;;4.42;91.26;99093.94;10250196;28;20476;-65
2023/11/27 09:23:46;;;;;;;7.70;4.80;;;;;;;4.54;91.48;99100.94;10216973;28;20077;-65
2023/11/27 09:28:47;;;;;;;6.30;3.80;;;;;;;4.49;91.27;99089.91;10252923;28;20055;-65
2023/11/27 09:33:49;;;;;;;4.95;4.03;;;;;;;4.33;91.68;99063.00;10239554;28;20529;-65
2023/11/27 09:38:50;;;;;;;6.65;4.40;;;;;;;4.50;91.14;99067.84;10223255;28;20063;-64
2023/11/27 09:43:52;;;;;;;5.93;4.35;;;;;;;4.57;92.79;99061.19;10251729;28;20058;-65
2023/11/27 09:48:57;;;;;;;5.97;4.25;;;;;;;4.51;91.19;99048.47;10246407;28;20062;-64
2023/11/27 09:54:03;;;;;;;6.40;4.55;;;;;;;4.51;92.35;99043.19;10212928;28;20052;-62
2023/11/27 09:59:08;;;;;;;6.40;3.58;;;;;;;4.37;93.25;99014.41;10239621;28;20063;-62
2023/11/27 10:04:11;;;;;;;6.38;4.50;;;;;;;4.45;92.85;99025.22;10245800;28;20558;-64
2023/11/27 10:09:18;;;;;;;8.13;5.65;;;;;;;4.22;93.58;99009.31;10232912;28;20058;-64
2023/11/27 10:14:19;;;;;;;8.20;7.25;;;;;;;4.26;94.71;98975.66;10221605;28;20340;-64
2023/11/27 10:19:40;;;;;;;7.10;4.88;;;;;;;4.21;95.28;98973.38;10236918;28;20095;-62
2023/11/27 10:24:45;;;;;;;5.95;4.75;;;;;;;4.40;96.05;98961.47;10191701;28;20066;-63
2023/11/27 10:29:46;;;;;;;;;;;;;;;4.43;94.63;98940.16;10227188;28;20126;-62
2023/11/27 10:34:52;;;;;;;6.95;4.32;;;;;;;4.35;94.34;98926.72;10229541;28;19929;-62
2023/11/27 10:39:56;;;;;;;6.65;4.55;;;;;;;4.36;94.36;98916.06;10250681;28;20065;-63
2023/11/27 10:44:57;;;;;;;5.23;3.60;;;;;;;4.21;94.46;98899.63;10238275;28;20497;-64
2023/11/27 10:50:05;;;;;;;6.95;3.88;;;;;;;4.08;94.59;98888.34;10242208;28;20218;-64
2023/11/27 10:55:09;;;;;;;4.43;3.78;;;;;;;4.11;95.29;98877.56;10235462;28;20102;-63
2023/11/27 11:00:18;;;;;;;5.05;3.70;;;;;;;4.07;95.07;98866.44;10210074;28;20043;-62
2023/11/27 11:05:27;;;;;;;6.35;4.15;;;;;;;3.98;95.02;98856.59;10208397;28;20397;-63
2023/11/27 11:10:31;;;;;;;4.90;3.83;;;;;;;4.07;94.92;98848.00;10232877;28;20048;-66
2023/11/27 11:16:13;;;;;;;5.07;3.83;;;;;;;3.99;94.65;98839.00;10224419;28;20134;-65
2023/11/27 11:21:18;;;;;;;5.72;4.07;;;;;;;3.88;94.04;98827.50;10245058;28;20062;-65
2023/11/27 11:26:55;;;;;;;5.10;3.80;;;;;;;3.72;95.03;98811.16;10229341;28;20481;-65
2023/11/27 11:32:03;;;;;;;4.80;4.25;;;;;;;3.71;96.23;98802.44;10244518;28;20059;-65
2023/11/27 11:37:17;;;;;;;5.72;3.75;;;;;;;3.73;96.19;98783.91;10214864;28;20066;-65
2023/11/27 11:42:26;;;;;;;4.95;4.30;;;;;;;3.76;96.32;98769.69;10250682;28;20310;-65
2023/11/27 11:47:31;;;;;;;7.13;5.80;;;;;;;3.75;95.58;98763.56;10198277;28;20047;-65
2023/11/27 11:52:36;;;;;;;4.88;4.22;;;;;;;3.66;94.54;98751.09;10232311;28;20125;-62
2023/11/27 11:57:42;;;;;;;4.70;3.80;;;;;;;3.50;94.50;98725.97;10236274;28;20501;-63
2023/11/27 12:02:47;;;;;;;3.92;2.97;;;;;;;3.63;94.92;98725.03;10209429;28;20062;-62
2023/11/27 12:07:50;;;;;;;7.20;6.47;;;;;;;3.58;94.31;98706.13;10230856;28;20050;-63
2023/11/27 12:12:52;;;;;;;5.43;3.92;;;;;;;3.51;94.33;98685.56;10233537;28;20481;-65
2023/11/27 12:17:53;;;;;;;3.60;3.20;;;;;;;3.47;94.56;98678.84;10226950;28;20046;-64
2023/11/27 12:22:56;;;;;;;4.07;3.65;;;;;;;3.38;94.74;98673.44;10241828;28;20059;-63
2023/11/27 12:27:58;;;;;;;6.60;5.97;;;;;;;3.33;93.58;98665.88;10234141;28;20106;-61
2023/11/27 12:33:04;;;;;;;5.10;4.13;;;;;;;3.46;93.77;98656.13;10229537;28;20494;-64
2023/11/27 12:38:06;;;;;;;4.88;4.00;;;;;;;3.36;93.46;98634.09;10214187;28;20440;-66
2023/11/27 12:43:08;;;;;;;5.57;4.47;;;;;;;3.36;94.11;98634.94;10217587;28;20053;-63
2023/11/27 12:48:10;;;;;;;5.75;5.25;;;;;;;3.31;94.33;98625.72;10242907;28;20133;-63
2023/11/27 12:53:12;;;;;;;4.90;4.35;;;;;;;3.31;95.00;98613.41;10234769;28;20122;-64
2023/11/27 12:58:17;;;;;;;6.00;5.20;;;;;;;3.38;94.49;98610.31;10213803;28;20134;-63
2023/11/27 13:03:20;;;;;;;6.88;4.13;;;;;;;3.17;94.42;98609.22;10247573;28;20066;-61
2023/11/27 13:08:25;;;;;;;6.65;5.97;;;;;;;3.13;95.45;98593.78;10247633;28;20054;-64
2023/11/27 13:13:29;;;;;;;6.50;5.47;;;;;;;3.18;94.87;98584.59;10238911;28;20051;-61
2023/11/27 13:18:32;;;;;;;16.85;12.80;;;;;;;3.07;94.86;98555.66;10233114;28;20133;-66
2023/11/27 13:23:37;;;;;;;5.65;4.63;;;;;;;3.13;94.77;98549.91;10212236;28;20610;-64
2023/11/27 13:28:42;;;;;;;20.77;17.60;;;;;;;2.90;95.27;98522.78;10232308;28;20165;-63
2023/11/27 13:33:45;;;;;;;4.43;3.33;;;;;;;2.90;96.46;98529.81;10242718;28;20145;-63
2023/11/27 13:38:48;;;;;;;3.13;2.80;;;;;;;2.95;96.32;98522.41;10230596;28;20110;-61
2023/11/27 13:43:50;;;;;;;3.42;2.90;;;;;;;2.75;97.01;98503.75;10221781;28;20044;-63
2023/11/27 13:48:52;;;;;;;4.25;3.85;;;;;;;2.77;97.16;98493.13;10252252;28;20047;-62
2023/11/27 13:53:55;;;;;;;3.50;3.20;;;;;;;2.72;97.55;98493.47;10248041;28;20057;-64
2023/11/27 13:58:57;;;;;;;2.50;2.30;;;;;;;2.66;98.53;98486.06;10236491;28;20731;-65
2023/11/27 14:14:48;;;;;;;4.10;3.03;;;;;;;2.71;97.71;98431.38;10222462;28;20069;-62
2023/11/27 14:25:30;;;;;;;9.57;4.82;;;;;;;2.96;97.66;98432.09;10204319;28;20500;-64
2023/11/27 14:30:33;;;;;;;21.20;13.75;;;;;;;3.04;97.27;98424.44;10219773;28;20121;-66
2023/11/27 14:35:34;;;;;;;4.00;3.53;;;;;;;3.00;97.11;98415.13;10204204;28;20114;-65
2023/11/27 14:40:36;;;;;;;2.95;2.50;;;;;;;2.96;97.83;98405.81;10182979;28;20177;-64
2023/11/27 14:45:42;;;;;;;2.75;2.40;;;;;;;3.13;97.66;98397.41;10248769;28;20058;-63
2023/11/27 14:50:44;;;;;;;32.15;29.00;;;;;;;3.18;96.55;98389.16;10218002;28;20071;-65
2023/11/27 14:55:50;;;;;;;16.67;13.98;;;;;;;3.14;96.18;98383.31;10247827;28;20051;-64
2023/11/27 15:00:56;;;;;;;22.85;20.05;;;;;;;3.12;96.20;98366.84;10228865;28;20596;-63
2023/11/27 15:05:58;;;;;;;;;;;;;;;3.12;96.55;98358.97;10211398;28;20107;-62
2023/11/27 15:11:00;;;;;;;14.52;13.32;;;;;;;3.06;95.78;98329.69;10240033;28;20046;-66
2023/11/27 15:16:03;;;;;;;5.80;5.25;;;;;;;2.78;95.94;98285.41;10220977;28;20237;-64
2023/11/27 15:21:05;;;;;;;10.27;9.30;;;;;;;2.99;96.18;98324.09;10248558;28;20059;-63
2023/11/27 15:26:09;;;;;;;9.90;9.05;;;;;;;3.07;96.68;98324.31;10234221;28;20659;-65
2023/11/27 15:31:16;;;;;;;8.07;7.27;;;;;;;3.08;96.08;98304.94;10221996;28;20105;-63
2023/11/27 15:36:19;;;;;;;4.13;3.75;;;;;;;3.03;96.65;98293.94;10230568;28;20421;-63
2023/11/27 15:41:24;;;;;;;5.53;5.13;;;;;;;3.03;96.00;98275.56;10241927;28;20168;-63
2023/11/27 15:46:26;;;;;;;7.18;6.57;;;;;;;3.03;96.01;98275.56;10244724;28;20046;-64
2023/11/27 15:51:27;;;;;;;6.63;6.07;;;;;;;3.11;95.87;98267.06;10250760;28;20740;-63
2023/11/27 15:56:29;;;;;;;3.17;2.88;;;;;;;3.12;95.53;98264.31;10248603;28;20105;-63
2023/11/27 16:01:33;;;;;;;4.50;3.40;;;;;;;3.13;96.05;98252.81;10230855;28;20548;-63
2023/11/27 16:06:35;;;;;;;4.30;3.95;;;;;;;3.11;96.04;98240.78;10236352;28;20046;-62
2023/11/27 16:11:38;;;;;;;3.80;3.45;;;;;;;3.07;95.40;98227.03;10248403;28;20142;-65
2023/11/27 16:16:44;;;;;;;10.82;8.90;;;;;;;3.23;95.77;98217.88;10225424;28;20046;-62
2023/11/27 16:21:48;;;;;;;9.00;8.20;;;;;;;3.16;95.17;98213.13;10223478;28;20813;-62
2023/11/27 16:26:51;;;;;;;7.13;6.53;;;;;;;3.21;95.24;98199.59;10238381;28;20051;-66
2023/11/27 16:31:53;;;;;;;5.35;4.85;;;;;;;3.08;95.61;98163.00;10229880;28;20857;-65
2023/11/27 16:36:56;;;;;;;5.57;5.13;;;;;;;3.15;94.73;98173.81;10220126;28;20606;-63
2023/11/27 16:42:04;;;;;;;5.32;4.82;;;;;;;3.27;95.45;98177.22;10248701;28;20129;-63
2023/11/27 16:47:07;;;;;;;4.50;4.10;;;;;;;3.25;95.39;98168.63;10242380;28;20059;-67
2023/11/27 16:52:24;;;;;;;4.90;4.47;;;;;;;3.24;94.81;98161.72;10216194;28;21072;-66
2023/11/27 16:57:26;;;;;;;4.80;4.40;;;;;;;3.21;95.78;98161.97;10234799;28;20147;-65
2023/11/27 17:02:28;;;;;;;4.50;4.10;;;;;;;3.21;95.42;98151.44;10197315;28;20059;-65
2023/11/27 17:07:33;;;;;;;4.63;4.22;;;;;;;3.15;95.64;98140.50;10221977;28;20053;-64
2023/11/27 17:12:35;;;;;;;3.10;2.85;;;;;;;3.18;95.68;98129.72;10198718;28;20054;-64
2023/11/27 17:17:36;;;;;;;6.75;6.25;;;;;;;3.15;95.85;98131.75;10227789;28;20168;-64
2023/11/27 17:22:39;;;;;;;5.95;5.35;;;;;;;3.12;95.53;98121.50;10240519;28;20138;-63
2023/11/27 17:27:55;;;;;;;5.32;4.82;;;;;;;3.12;95.78;98119.72;10211694;28;20162;-63
2023/11/27 17:32:58;;;;;;;5.00;4.60;;;;;;;3.10;96.21;98103.22;10249200;28;20493;-65
2023/11/27 17:38:02;;;;;;;5.43;4.93;;;;;;;3.04;95.88;98093.22;10210961;28;20073;-64
2023/11/27 17:43:06;;;;;;;5.30;4.80;;;;;;;2.91;96.51;98069.78;10227670;28;20666;-64
2023/11/27 17:48:08;;;;;;;4.80;4.40;;;;;;;2.94;96.32;98076.56;10255030;28;20055;-65
2023/11/27 17:53:09;;;;;;;5.43;4.97;;;;;;;3.00;95.75;98073.41;10223001;28;20059;-65
2023/11/27 17:58:13;;;;;;;5.28;4.78;;;;;;;2.94;96.56;98066.03;10247400;28;20106;-65
2023/11/27 18:03:17;;;;;;;5.53;5.13;;;;;;;2.97;96.52;98060.53;10246055;28;20141;-63
2023/11/27 18:08:19;;;;;;;5.45;4.95;;;;;;;3.10;96.43;98055.91;10246993;28;20673;-63
2023/11/27 18:13:20;;;;;;;4.70;4.30;;;;;;;3.19;95.75;98063.00;10248160;28;20137;-66
2023/11/27 18:18:22;;;;;;;4.80;4.40;;;;;;;3.07;96.07;98050.91;10247270;28;20058;-64
2023/11/27 18:23:23;;;;;;;4.78;4.38;;;;;;;3.09;96.25;98049.00;10243869;28;20055;-65
2023/11/27 18:28:26;;;;;;;5.45;4.95;;;;;;;3.03;96.61;98028.47;10247406;28;20059;-64
2023/11/27 18:33:28;;;;;;;5.30;4.90;;;;;;;3.00;96.72;98026.09;10246851;28;20509;-66
2023/11/27 18:38:30;;;;;;;4.95;4.53;;;;;;;3.05;96.79;98020.44;10246729;28;20065;-66
2023/11/27 18:43:36;;;;;;;9.15;7.72;;;;;;;3.02;97.21;98005.78;10246801;28;20063;-64
2023/11/27 18:48:39;;;;;;;15.07;11.85;;;;;;;3.03;96.61;98002.19;10245875;28;20039;-63
2023/11/27 18:53:41;;;;;;;5.43;4.93;;;;;;;2.76;96.73;97953.66;10231565;28;20062;-64
2023/11/27 18:58:43;;;;;;;6.53;4.72;;;;;;;2.96;96.18;97975.59;10243909;28;20208;-66
2023/11/27 19:03:44;;;;;;;5.07;4.68;;;;;;;3.03;96.82;97994.28;10223132;28;20055;-64
2023/11/27 19:08:47;;;;;;;5.60;5.18;;;;;;;3.05;96.35;97976.63;10197151;28;20054;-65
2023/11/27 19:13:48;;;;;;;7.32;6.63;;;;;;;2.93;96.49;97975.88;10234497;28;20548;-64
2023/11/27 19:18:53;;;;;;;5.70;5.20;;;;;;;2.92;96.79;97963.69;10216977;28;20062;-64
2023/11/27 19:23:54;;;;;;;6.30;5.68;;;;;;;2.97;97.45;97961.50;10223472;28;20050;-63
2023/11/27 19:28:58;;;;;;;5.65;5.15;;;;;;;3.04;96.91;97951.28;10229139;28;20814;-64
2023/11/27 19:34:03;;;;;;;6.30;5.70;;;;;;;3.05;97.34;97933.72;10220629;28;20141;-63
2023/11/27 19:39:05;;;;;;;5.38;4.75;;;;;;;3.11;96.68;97938.47;10228578;28;20061;-64
2023/11/27 19:44:09;;;;;;;4.55;4.25;;;;;;;3.12;95.98;97943.59;10233735;28;20183;-65
2023/11/27 19:49:12;;;;;;;4.93;4.43;;;;;;;3.12;96.33;97933.06;10193664;28;20058;-65
2023/11/27 19:54:18;;;;;;;4.72;4.32;;;;;;;3.18;96.86;97924.66;10243763;28;20142;-65
2023/11/27 19:59:25;;;;;;;4.82;4.43;;;;;;;3.25;96.18;97917.03;10234831;28;20054;-64
2023/11/27 20:04:27;;;;;;;4.10;3.70;;;;;;;3.12;94.88;97911.19;10225297;28;20106;-64
2023/11/27 20:09:30;;;;;;;4.22;3.83;;;;;;;3.22;95.72;97905.97;10218863;28;20063;-64
2023/11/27 20:14:32;;;;;;;4.20;3.90;;;;;;;3.11;95.90;97897.22;10218583;28;20050;-63
2023/11/27 20:19:35;;;;;;;5.13;4.65;;;;;;;3.00;95.78;97887.66;10223602;28;20063;-63
2023/11/27 20:24:37;;;;;;;4.53;4.13;;;;;;;2.94;96.78;97897.84;10221631;28;20046;-62
2023/11/27 20:29:44;;;;;;;4.75;4.25;;;;;;;2.92;97.22;97884.03;10207302;28;20049;-64
2023/11/27 20:34:46;;;;;;;4.80;4.40;;;;;;;3.04;97.07;97893.47;10220908;28;20084;-64
2023/11/27 20:39:47;;;;;;;4.20;3.83;;;;;;;2.81;96.55;97853.44;10231451;28;20186;-63
2023/11/27 20:44:49;;;;;;;4.00;3.70;;;;;;;2.97;97.15;97877.41;10216321;28;20746;-62
2023/11/27 20:49:56;;;;;;;4.13;3.72;;;;;;;3.03;96.40;97869.94;10238777;28;20130;-64
2023/11/27 20:55:00;;;;;;;3.92;3.63;;;;;;;2.98;97.17;97871.16;10248958;28;20062;-64
2023/11/27 21:00:07;;;;;;;4.22;3.92;;;;;;;2.89;96.79;97863.25;10245350;28;21049;-62
2023/11/27 21:05:10;;;;;;;4.07;3.70;;;;;;;3.03;97.46;97856.78;10238094;28;20251;-63
2023/11/27 21:10:12;;;;;;;3.83;3.53;;;;;;;3.00;97.01;97852.63;10238240;28;20078;-64
2023/11/27 21:15:14;;;;;;;3.72;3.42;;;;;;;2.90;96.44;97841.25;10232417;28;20586;-64
2023/11/27 21:20:17;;;;;;;3.58;3.28;;;;;;;2.94;96.86;97845.28;10223354;28;20058;-65
2023/11/27 21:25:19;;;;;;;3.97;3.53;;;;;;;2.83;96.99;97844.41;10212744;28;20716;-65
2023/11/27 21:30:21;;;;;;;3.05;2.85;;;;;;;2.81;97.34;97830.59;10256722;28;21050;-65
2023/11/27 21:35:26;;;;;;;3.25;2.95;;;;;;;2.78;97.99;97846.63;10239437;28;20378;-63
2023/11/27 21:40:28;;;;;;;3.47;3.17;;;;;;;2.79;97.71;97832.53;10226074;28;20055;-64
2023/11/27 21:45:30;;;;;;;3.13;2.83;;;;;;;2.75;98.09;97831.13;10230803;28;20062;-62
2023/11/27 21:50:32;;;;;;;3.53;3.30;;;;;;;2.84;98.06;97829.50;10228073;28;20092;-62
2023/11/27 21:55:33;;;;;;;3.28;3.08;;;;;;;2.81;97.56;97817.47;10245271;28;20149;-64
2023/11/27 22:00:35;;;;;;;3.50;3.20;;;;;;;2.83;98.06;97818.16;10247266;28;20054;-64
2023/11/27 22:05:36;;;;;;;3.13;2.83;;;;;;;2.90;97.99;97812.34;10223021;28;20476;-65
2023/11/27 22:10:38;;;;;;;3.20;2.90;;;;;;;2.91;98.03;97803.50;10244619;28;20584;-63
2023/11/27 22:15:43;;;;;;;3.50;3.20;;;;;;;2.81;97.73;97798.25;10231269;28;20067;-63
2023/11/27 22:20:44;;;;;;;3.88;3.58;;;;;;;2.93;98.00;97802.41;10229730;28;20085;-62
2023/11/27 22:25:46;;;;;;;3.80;3.50;;;;;;;3.00;98.29;97797.44;10208827;28;20082;-67
2023/11/27 22:30:47;;;;;;;4.38;3.97;;;;;;;3.06;97.88;97796.06;10224580;28;20137;-63
2023/11/27 22:35:49;;;;;;;4.38;3.97;;;;;;;3.11;98.58;97793.88;10240614;28;20050;-63
2023/11/27 22:40:50;;;;;;;4.88;4.47;;;;;;;3.03;98.30;97781.38;10229695;28;20070;-64
2023/11/27 22:45:52;;;;;;;4.70;4.30;;;;;;;3.11;98.63;97784.19;10250183;28;20229;-64
2023/11/27 22:50:53;;;;;;;4.68;4.28;;;;;;;3.03;99.07;97770.88;10229470;28;20045;-63
2023/11/27 22:55:55;;;;;;;5.03;4.63;;;;;;;3.07;99.16;97763.56;10237505;28;20103;-65
2023/11/27 23:00:56;;;;;;;4.55;4.15;;;;;;;3.13;99.48;97761.22;10211962;28;20039;-63
2023/11/27 23:05:58;;;;;;;5.15;4.75;;;;;;;3.16;99.96;97755.69;10238286;28;20125;-63
2023/11/27 23:11:07;;;;;;;5.30;4.78;;;;;;;3.25;100.00;97753.19;10235898;28;20186;-63
2023/11/27 23:16:13;;;;;;;5.53;5.03;;;;;;;3.30;100.00;97740.47;10217110;28;20162;-63
2023/11/27 23:21:17;;;;;;;5.90;5.30;;;;;;;3.23;100.00;97739.34;10250523;28;20685;-64
2023/11/27 23:26:18;;;;;;;6.30;5.22;;;;;;;3.31;99.91;97744.75;10251996;28;20057;-63
2023/11/27 23:31:20;;;;;;;7.60;6.80;;;;;;;3.36;100.00;97739.91;10244759;28;20051;-63
2023/11/27 23:36:23;;;;;;;5.88;5.38;;;;;;;3.42;100.00;97731.44;10225094;28;20410;-63
2023/11/27 23:41:28;;;;;;;5.78;5.28;;;;;;;3.52;100.00;97737.53;10244574;28;20116;-63
2023/11/27 23:46:30;;;;;;;6.20;5.60;;;;;;;3.59;100.00;97729.06;10229562;28;20489;-62
2023/11/27 23:51:31;;;;;;;6.03;5.43;;;;;;;3.69;100.00;97724.63;10252021;28;20138;-64
2023/11/27 23:56:36;;;;;;;6.25;5.65;;;;;;;3.68;100.00;97717.72;10244932;28;20050;-63
